createdAt,value
2017-10-29T00:01:49.290Z,97.90
2017-10-29T00:04:16.926Z,98.30
2017-10-29T00:06:44.543Z,98.60
2017-10-29T00:09:12.160Z,98.40
2017-10-29T00:11:39.802Z,99.00
2017-10-29T00:14:08.179Z,99.60
2017-10-29T00:16:35.835Z,99.60
2017-10-29T00:19:03.449Z,98.30
2017-10-29T00:21:31.882Z,97.50
2017-10-29T00:23:59.522Z,97.40
2017-10-29T00:26:27.146Z,97.90
2017-10-29T00:28:54.791Z,97.30
2017-10-29T00:31:22.406Z,97.50
2017-10-29T00:33:50.027Z,97.30
2017-10-29T00:36:17.661Z,97.80
2017-10-29T00:38:45.283Z,97.90
2017-10-29T00:41:12.926Z,98.50
2017-10-29T00:43:40.540Z,97.90
2017-10-29T00:46:08.156Z,98.00
2017-10-29T00:48:35.793Z,98.80
2017-10-29T00:51:03.414Z,99.90
2017-10-29T00:53:31.066Z,99.10
2017-10-29T00:55:58.686Z,99.10
2017-10-29T00:58:26.298Z,99.00
2017-10-29T01:00:53.946Z,99.30
2017-10-29T01:03:21.557Z,99.90
2017-10-29T01:05:49.199Z,98.30
2017-10-29T01:08:16.805Z,97.90
2017-10-29T01:10:44.432Z,98.70
2017-10-29T01:13:12.834Z,99.40
2017-10-29T01:15:40.443Z,98.90
2017-10-29T01:18:08.899Z,98.30
2017-10-29T01:20:36.523Z,98.20
2017-10-29T01:23:04.187Z,98.10
2017-10-29T01:25:31.832Z,97.80
2017-10-29T01:27:59.443Z,98.10
2017-10-29T01:30:27.090Z,99.00
2017-10-29T01:32:54.730Z,98.50
2017-10-29T01:35:22.385Z,99.40
2017-10-29T01:37:50.069Z,99.50
2017-10-29T01:40:17.681Z,99.90
2017-10-29T01:42:45.322Z,99.90
2017-10-29T01:45:12.922Z,99.90
2017-10-29T01:47:41.295Z,99.90
2017-10-29T01:50:09.711Z,99.90
2017-10-29T01:52:37.326Z,99.90
2017-10-29T01:55:04.965Z,99.90
2017-10-29T01:57:32.579Z,99.90
2017-10-29T02:00:00.186Z,99.90
2017-10-29T02:02:27.830Z,99.90
2017-10-29T02:04:55.443Z,99.90
2017-10-29T02:07:23.087Z,99.90
2017-10-29T02:09:50.718Z,99.90
2017-10-29T02:12:19.096Z,99.90
2017-10-29T02:14:46.734Z,99.90
2017-10-29T02:17:15.178Z,99.90
2017-10-29T02:19:42.829Z,99.90
2017-10-29T02:22:10.459Z,99.90
2017-10-29T02:24:38.070Z,99.90
2017-10-29T02:27:05.711Z,99.90
2017-10-29T02:29:33.347Z,99.90
2017-10-29T02:32:01.719Z,99.90
2017-10-29T02:34:29.334Z,99.90
2017-10-29T02:36:56.947Z,99.90
2017-10-29T02:39:24.590Z,99.90
2017-10-29T02:41:52.208Z,99.90
2017-10-29T02:44:19.854Z,99.90
2017-10-29T02:46:47.476Z,99.90
2017-10-29T02:49:15.862Z,99.90
2017-10-29T02:51:43.522Z,99.90
2017-10-29T02:54:11.136Z,99.90
2017-10-29T02:56:38.786Z,99.90
2017-10-29T02:59:06.407Z,99.90
2017-10-29T03:01:34.020Z,99.90
2017-10-29T03:04:01.731Z,99.90
2017-10-29T03:06:29.338Z,99.90
2017-10-29T03:08:56.982Z,99.90
2017-10-29T03:11:24.607Z,99.90
2017-10-29T03:13:52.217Z,99.90
2017-10-29T03:16:19.874Z,99.90
2017-10-29T03:18:47.495Z,99.90
2017-10-29T03:21:15.903Z,99.90
2017-10-29T03:23:43.528Z,99.90
2017-10-29T03:26:11.157Z,99.90
2017-10-29T03:28:38.802Z,99.90
2017-10-29T03:31:06.420Z,99.90
2017-10-29T03:33:34.891Z,99.90
2017-10-29T03:36:02.506Z,99.90
2017-10-29T03:38:30.119Z,99.90
2017-10-29T03:40:57.774Z,99.90
2017-10-29T03:43:25.390Z,99.90
2017-10-29T03:45:53.812Z,99.90
2017-10-29T03:48:21.422Z,99.90
2017-10-29T03:50:49.034Z,99.90
2017-10-29T03:53:16.692Z,99.90
2017-10-29T03:55:45.074Z,99.90
2017-10-29T03:58:12.722Z,99.90
2017-10-29T04:00:40.349Z,99.90
2017-10-29T04:03:08.734Z,99.90
2017-10-29T04:05:36.386Z,99.90
2017-10-29T04:08:03.993Z,99.90
2017-10-29T04:10:31.635Z,99.90
2017-10-29T04:12:59.251Z,99.90
2017-10-29T04:15:26.874Z,99.90
2017-10-29T04:17:54.514Z,99.90
2017-10-29T04:20:22.131Z,99.90
2017-10-29T04:22:50.544Z,99.90
2017-10-29T04:25:18.167Z,99.90
2017-10-29T04:27:45.791Z,99.90
2017-10-29T04:30:14.202Z,99.90
2017-10-29T04:32:41.831Z,99.90
2017-10-29T04:35:09.494Z,99.90
2017-10-29T04:37:37.107Z,99.90
2017-10-29T04:40:04.719Z,99.90
2017-10-29T04:42:32.506Z,99.90
2017-10-29T04:45:00.118Z,99.90
2017-10-29T04:47:27.867Z,99.90
2017-10-29T04:49:55.492Z,99.90
2017-10-29T04:52:23.101Z,99.90
2017-10-29T04:54:50.770Z,99.90
2017-10-29T04:57:18.452Z,99.90
2017-10-29T04:59:46.093Z,99.90
2017-10-29T05:02:13.714Z,99.90
2017-10-29T05:04:41.327Z,99.90
2017-10-29T05:07:08.966Z,99.90
2017-10-29T05:09:36.598Z,99.90
2017-10-29T05:12:05.010Z,99.90
2017-10-29T05:14:32.637Z,99.90
2017-10-29T05:17:00.255Z,99.90
2017-10-29T05:19:28.666Z,99.90
2017-10-29T05:21:56.277Z,99.90
2017-10-29T05:24:24.716Z,99.90
2017-10-29T05:26:52.329Z,99.90
2017-10-29T05:29:19.938Z,99.90
2017-10-29T05:31:47.587Z,99.90
2017-10-29T05:34:15.207Z,99.90
2017-10-29T05:36:42.901Z,93.80
2017-10-29T05:39:10.511Z,95.80
2017-10-29T05:41:38.906Z,95.00
2017-10-29T05:44:06.674Z,94.80
2017-10-29T05:46:34.297Z,94.50
2017-10-29T05:49:02.015Z,94.30
2017-10-29T05:51:30.404Z,94.40
2017-10-29T05:53:58.010Z,94.50
2017-10-29T05:56:25.715Z,95.70
2017-10-29T05:58:53.325Z,93.90
2017-10-29T06:01:21.748Z,91.40
2017-10-29T06:03:49.386Z,91.30
2017-10-29T06:06:16.999Z,93.40
2017-10-29T06:08:44.653Z,93.10
2017-10-29T06:11:12.283Z,87.30
2017-10-29T06:13:39.931Z,81.40
2017-10-29T06:16:07.547Z,84.30
2017-10-29T06:18:35.191Z,87.00
2017-10-29T06:21:02.940Z,86.80
2017-10-29T06:23:30.589Z,85.70
2017-10-29T06:25:58.239Z,84.90
2017-10-29T06:28:25.854Z,86.30
2017-10-29T06:30:53.466Z,83.80
2017-10-29T06:33:21.105Z,83.30
2017-10-29T06:35:48.726Z,84.40
2017-10-29T06:38:17.146Z,85.00
2017-10-29T06:40:44.769Z,84.50
2017-10-29T06:43:12.390Z,82.50
2017-10-29T06:45:42.685Z,82.70
2017-10-29T06:48:10.374Z,83.30
2017-10-29T06:50:38.034Z,78.90
2017-10-29T06:53:13.920Z,77.10
2017-10-29T06:55:44.805Z,76.20
2017-10-29T06:58:12.437Z,78.30
2017-10-29T07:00:40.053Z,73.30
2017-10-29T07:03:08.883Z,75.20
2017-10-29T07:05:41.048Z,75.50
2017-10-29T07:08:11.168Z,70.40
2017-10-29T07:10:45.072Z,66.90
2017-10-29T07:13:13.310Z,63.70
2017-10-29T07:15:40.933Z,63.90
2017-10-29T07:18:08.562Z,63.00
2017-10-29T07:20:36.197Z,63.20
2017-10-29T07:23:03.803Z,60.00
2017-10-29T07:25:31.550Z,63.00
2017-10-29T07:27:59.167Z,63.60
2017-10-29T07:30:26.780Z,57.00
2017-10-29T07:32:54.426Z,60.80
2017-10-29T07:35:22.053Z,57.60
2017-10-29T07:37:50.466Z,57.50
2017-10-29T07:40:18.081Z,57.50
2017-10-29T07:42:46.678Z,55.90
2017-10-29T07:45:14.326Z,54.20
2017-10-29T07:47:42.011Z,57.70
2017-10-29T07:50:09.674Z,55.80
2017-10-29T07:52:38.064Z,54.70
2017-10-29T07:55:05.706Z,54.70
2017-10-29T07:57:33.366Z,52.80
2017-10-29T08:00:01.008Z,53.50
2017-10-29T08:02:28.657Z,51.30
2017-10-29T08:04:56.289Z,51.60
2017-10-29T08:07:23.911Z,51.80
2017-10-29T08:09:52.333Z,49.20
2017-10-29T08:12:19.965Z,49.30
2017-10-29T08:14:47.633Z,49.30
2017-10-29T08:17:15.241Z,49.50
2017-10-29T08:19:42.870Z,50.00
2017-10-29T08:22:10.526Z,50.90
2017-10-29T08:24:38.146Z,49.70
2017-10-29T08:27:05.806Z,50.70
2017-10-29T08:29:34.186Z,50.90
2017-10-29T08:32:01.871Z,51.00
2017-10-29T08:34:29.522Z,50.20
2017-10-29T08:36:57.177Z,50.50
2017-10-29T08:39:24.818Z,50.80
2017-10-29T08:41:52.440Z,49.50
2017-10-29T08:44:20.058Z,53.00
2017-10-29T08:46:48.470Z,55.20
2017-10-29T08:49:16.095Z,55.10
2017-10-29T08:51:43.746Z,61.70
2017-10-29T08:54:11.365Z,64.10
2017-10-29T08:56:38.996Z,67.20
2017-10-29T08:59:07.409Z,69.70
2017-10-29T09:01:35.013Z,69.70
2017-10-29T09:04:03.447Z,68.20
2017-10-29T09:06:31.062Z,68.00
2017-10-29T09:09:02.293Z,68.50
2017-10-29T09:11:30.186Z,66.00
2017-10-29T09:13:58.964Z,65.30
2017-10-29T09:16:27.397Z,65.70
2017-10-29T09:18:55.013Z,65.60
2017-10-29T09:21:22.631Z,64.10
2017-10-29T09:23:51.057Z,63.00
2017-10-29T09:26:27.156Z,63.00
2017-10-29T09:28:55.955Z,61.00
2017-10-29T09:31:23.577Z,60.70
2017-10-29T09:33:51.275Z,60.30
2017-10-29T09:36:18.939Z,60.40
2017-10-29T09:38:46.560Z,60.40
2017-10-29T09:41:14.211Z,60.40
2017-10-29T09:43:41.832Z,59.20
2017-10-29T09:46:09.454Z,59.30
2017-10-29T09:48:37.103Z,60.40
2017-10-29T09:51:04.717Z,58.40
2017-10-29T09:53:32.357Z,59.70
2017-10-29T09:55:59.982Z,59.20
2017-10-29T09:58:27.593Z,59.90
2017-10-29T10:00:55.241Z,61.50
2017-10-29T10:03:22.874Z,60.70
2017-10-29T10:05:51.283Z,60.20
2017-10-29T10:08:18.919Z,60.20
2017-10-29T10:10:46.592Z,59.80
2017-10-29T10:13:14.327Z,61.40
2017-10-29T10:15:41.954Z,62.20
2017-10-29T10:18:09.610Z,63.30
2017-10-29T10:20:37.219Z,61.50
2017-10-29T10:23:04.842Z,62.90
2017-10-29T10:25:32.484Z,63.80
2017-10-29T10:28:01.477Z,67.30
2017-10-29T10:30:29.892Z,65.00
2017-10-29T10:32:57.524Z,64.90
2017-10-29T10:35:25.177Z,66.40
2017-10-29T10:37:52.827Z,63.60
2017-10-29T10:40:20.448Z,66.20
2017-10-29T10:42:48.101Z,67.50
2017-10-29T10:45:15.724Z,70.40
2017-10-29T10:47:44.107Z,77.60
2017-10-29T10:50:11.746Z,77.70
2017-10-29T10:52:39.457Z,85.30
2017-10-29T10:55:07.116Z,86.90
2017-10-29T10:57:34.731Z,91.60
2017-10-29T11:00:02.360Z,91.40
2017-10-29T11:02:30.026Z,92.90
2017-10-29T11:04:57.747Z,92.70
2017-10-29T11:07:25.440Z,93.20
2017-10-29T11:09:53.050Z,92.50
2017-10-29T11:12:20.995Z,91.10
2017-10-29T11:14:48.637Z,90.90
2017-10-29T11:17:16.591Z,89.00
2017-10-29T11:19:45.399Z,90.90
2017-10-29T11:22:14.160Z,90.10
2017-10-29T11:24:41.912Z,90.80
2017-10-29T11:27:09.615Z,90.80
2017-10-29T11:29:37.554Z,90.60
2017-10-29T11:32:08.031Z,89.30
2017-10-29T11:34:35.674Z,89.30
2017-10-29T11:37:06.192Z,86.60
2017-10-29T11:39:34.137Z,85.70
2017-10-29T11:42:01.749Z,86.20
2017-10-29T11:44:29.400Z,85.40
2017-10-29T11:46:57.040Z,84.00
2017-10-29T11:49:26.216Z,83.30
2017-10-29T11:51:55.366Z,82.40
2017-10-29T11:54:23.027Z,82.30
2017-10-29T11:56:51.115Z,80.60
2017-10-29T11:59:18.774Z,82.00
2017-10-29T12:01:46.396Z,81.50
2017-10-29T12:04:14.814Z,79.60
2017-10-29T12:09:10.706Z,80.50
2017-10-29T12:11:38.320Z,80.40
2017-10-29T12:14:10.593Z,78.80
2017-10-29T12:16:38.235Z,81.40
2017-10-29T12:19:05.843Z,82.10
2017-10-29T12:21:34.190Z,84.30
2017-10-29T12:24:01.801Z,87.20
2017-10-29T12:26:29.431Z,88.50
2017-10-29T12:28:57.096Z,89.90
2017-10-29T12:31:24.715Z,90.00
2017-10-29T12:33:52.365Z,89.80
2017-10-29T12:36:20.770Z,88.40
2017-10-29T12:38:48.491Z,92.00
2017-10-29T12:41:16.226Z,91.00
2017-10-29T12:43:43.851Z,93.20
2017-10-29T12:46:11.488Z,94.10
2017-10-29T12:48:39.102Z,95.80
2017-10-29T12:51:06.722Z,93.40
2017-10-29T12:53:34.360Z,93.70
2017-10-29T12:56:01.976Z,93.40
2017-10-29T12:58:29.798Z,92.70
2017-10-29T13:00:57.907Z,91.40
2017-10-29T13:03:27.083Z,92.80
2017-10-29T13:05:56.114Z,92.20
2017-10-29T13:08:23.772Z,92.20
2017-10-29T13:10:51.445Z,91.80
2017-10-29T13:13:22.213Z,92.70
2017-10-29T13:15:49.802Z,92.70
2017-10-29T13:18:17.491Z,90.10
2017-10-29T13:20:45.735Z,87.90
2017-10-29T13:23:18.797Z,84.80
2017-10-29T13:25:48.800Z,86.30
2017-10-29T13:28:16.675Z,86.30
2017-10-29T13:30:44.377Z,85.90
2017-10-29T13:33:12.005Z,87.00
2017-10-29T13:35:39.919Z,88.90
2017-10-29T13:38:07.645Z,89.30
2017-10-29T13:40:35.271Z,90.20
2017-10-29T13:43:02.998Z,92.10
2017-10-29T13:45:30.702Z,92.60
2017-10-29T13:47:58.339Z,92.40
2017-10-29T13:50:26.951Z,94.30
2017-10-29T13:52:54.674Z,94.30
2017-10-29T13:55:22.328Z,93.90
2017-10-29T13:57:49.963Z,95.90
2017-10-29T14:00:19.411Z,96.90
2017-10-29T14:02:47.201Z,97.00
2017-10-29T14:05:14.830Z,98.00
2017-10-29T14:07:43.230Z,99.00
2017-10-29T14:10:12.629Z,99.00
2017-10-29T14:12:40.378Z,99.70
2017-10-29T14:15:10.134Z,97.50
2017-10-29T14:17:38.407Z,98.40
2017-10-29T14:20:06.308Z,97.50
2017-10-29T14:22:34.006Z,97.10
2017-10-29T14:25:02.884Z,94.70
2017-10-29T14:27:31.618Z,97.20
2017-10-29T14:30:00.154Z,97.00
2017-10-29T14:32:28.635Z,96.70
2017-10-29T14:34:56.317Z,96.60
2017-10-29T14:37:24.782Z,95.60
2017-10-29T14:39:52.561Z,96.10
2017-10-29T14:42:20.435Z,95.40
2017-10-29T14:44:48.144Z,94.90
2017-10-29T14:47:16.652Z,94.40
2017-10-29T14:49:44.349Z,94.40
2017-10-29T14:52:12.019Z,94.10
2017-10-29T14:54:42.437Z,93.10
2017-10-29T14:57:10.399Z,93.50
2017-10-29T14:59:38.078Z,93.20
2017-10-29T15:02:07.322Z,93.30
2017-10-29T15:04:35.666Z,93.10
2017-10-29T15:07:03.310Z,91.70
2017-10-29T15:09:31.773Z,92.10
2017-10-29T15:12:00.241Z,91.30
2017-10-29T15:14:27.951Z,91.30
2017-10-29T15:16:56.622Z,91.10
2017-10-29T15:19:24.227Z,91.90
2017-10-29T15:21:52.882Z,90.30
2017-10-29T15:24:21.991Z,89.00
2017-10-29T15:26:49.891Z,89.00
2017-10-29T15:29:17.515Z,89.20
2017-10-29T15:31:45.123Z,88.80
2017-10-29T15:34:12.773Z,90.10
2017-10-29T15:36:40.386Z,90.60
2017-10-29T15:39:08.030Z,90.00
2017-10-29T15:41:36.414Z,89.20
2017-10-29T15:44:04.066Z,88.50
2017-10-29T15:46:31.984Z,87.60
2017-10-29T15:49:00.319Z,87.00
2017-10-29T15:51:29.245Z,88.00
2017-10-29T15:53:57.147Z,88.20
2017-10-29T15:56:25.770Z,88.00
2017-10-29T15:58:53.378Z,88.00
2017-10-29T16:01:20.990Z,87.80
2017-10-29T16:03:48.665Z,88.30
2017-10-29T16:06:16.274Z,89.80
2017-10-29T16:08:43.993Z,88.80
2017-10-29T16:11:11.665Z,86.60
2017-10-29T16:13:39.279Z,87.40
2017-10-29T16:16:06.920Z,88.50
2017-10-29T16:18:34.549Z,87.70
2017-10-29T16:21:02.250Z,88.10
2017-10-29T16:23:29.859Z,86.60
2017-10-29T16:25:57.506Z,87.10
2017-10-29T16:28:25.144Z,86.50
2017-10-29T16:30:53.291Z,84.20
2017-10-29T16:33:21.772Z,84.90
2017-10-29T16:35:49.481Z,84.80
2017-10-29T16:38:17.276Z,81.70
2017-10-29T16:40:44.920Z,80.20
2017-10-29T16:43:12.547Z,81.00
2017-10-29T16:45:40.252Z,80.60
2017-10-29T16:48:08.671Z,78.60
2017-10-29T16:50:36.290Z,81.10
2017-10-29T16:53:03.960Z,81.00
2017-10-29T16:55:31.570Z,80.40
2017-10-29T16:57:59.200Z,79.60
2017-10-29T17:00:26.837Z,79.90
2017-10-29T17:02:55.225Z,81.00
2017-10-29T17:05:22.877Z,80.90
2017-10-29T17:07:50.491Z,77.60
2017-10-29T17:10:18.895Z,77.40
2017-10-29T17:12:46.561Z,77.40
2017-10-29T17:15:14.198Z,75.40
2017-10-29T17:17:41.807Z,74.30
2017-10-29T17:20:09.425Z,75.50
2017-10-29T17:22:37.090Z,72.90
2017-10-29T17:25:04.699Z,73.30
2017-10-29T17:27:32.655Z,76.00
2017-10-29T17:30:00.291Z,75.20
2017-10-29T17:32:27.940Z,77.00
2017-10-29T17:34:55.594Z,76.60
2017-10-29T17:37:27.751Z,77.50
2017-10-29T17:39:55.479Z,78.90
2017-10-29T17:42:23.150Z,76.70
2017-10-29T17:44:50.787Z,78.90
2017-10-29T17:47:18.486Z,79.20
2017-10-29T17:49:49.748Z,80.70
2017-10-29T17:52:20.756Z,80.30
2017-10-29T17:54:52.097Z,81.50
2017-10-29T17:57:24.874Z,82.90
2017-10-29T17:59:53.321Z,81.80
2017-10-29T18:02:20.947Z,82.90
2017-10-29T18:04:48.625Z,82.90
2017-10-29T18:07:16.288Z,84.10
2017-10-29T18:09:43.935Z,84.70
2017-10-29T18:12:11.547Z,84.90
2017-10-29T18:14:39.798Z,84.50
2017-10-29T18:17:08.300Z,84.50
2017-10-29T18:19:35.931Z,84.40
2017-10-29T18:22:03.574Z,84.90
2017-10-29T18:24:31.223Z,85.50
2017-10-29T18:26:58.852Z,84.40
2017-10-29T18:29:27.276Z,84.80
2017-10-29T18:31:56.511Z,84.80
2017-10-29T18:34:25.035Z,85.30
2017-10-29T18:36:52.664Z,85.30
2017-10-29T18:39:20.334Z,84.80
2017-10-29T18:41:49.058Z,84.40
2017-10-29T18:44:16.699Z,84.80
2017-10-29T18:46:44.403Z,84.70
2017-10-29T18:49:12.018Z,83.30
2017-10-29T18:51:39.638Z,83.80
2017-10-29T18:54:07.290Z,84.00
2017-10-29T18:56:34.992Z,83.10
2017-10-29T18:59:02.672Z,84.20
2017-10-29T19:01:30.298Z,83.40
2017-10-29T19:03:58.678Z,83.60
2017-10-29T19:06:26.443Z,83.60
2017-10-29T19:08:54.076Z,82.80
2017-10-29T19:11:21.722Z,80.50
2017-10-29T19:13:49.349Z,82.40
2017-10-29T19:16:16.959Z,81.00
2017-10-29T19:18:44.606Z,81.30
2017-10-29T19:21:12.286Z,80.90
2017-10-29T19:23:39.935Z,80.00
2017-10-29T19:26:08.329Z,84.50
2017-10-29T19:28:35.985Z,84.50
2017-10-29T19:31:03.680Z,85.50
2017-10-29T19:33:31.307Z,85.80
2017-10-29T19:35:58.948Z,85.20
2017-10-29T19:38:26.558Z,83.30
2017-10-29T19:40:54.167Z,85.50
2017-10-29T19:43:21.810Z,85.30
2017-10-29T19:45:49.432Z,86.80
2017-10-29T19:48:17.120Z,85.10
2017-10-29T19:50:45.506Z,85.70
2017-10-29T19:53:13.108Z,85.60
2017-10-29T19:55:40.742Z,81.90
2017-10-29T19:58:08.363Z,78.80
2017-10-29T20:00:36.030Z,77.00
2017-10-29T20:03:03.650Z,79.00
2017-10-29T20:05:31.267Z,81.20
2017-10-29T20:07:59.687Z,82.80
2017-10-29T20:10:27.293Z,82.80
2017-10-29T20:12:54.968Z,83.80
2017-10-29T20:15:22.578Z,83.70
2017-10-29T20:17:50.195Z,85.20
2017-10-29T20:20:17.836Z,84.40
2017-10-29T20:22:45.450Z,85.20
2017-10-29T20:25:13.094Z,86.80
2017-10-29T20:27:40.720Z,85.50
2017-10-29T20:30:08.734Z,86.70
2017-10-29T20:32:36.372Z,87.50
2017-10-29T20:35:03.994Z,88.60
2017-10-29T20:37:31.645Z,88.30
2017-10-29T20:39:59.259Z,89.30
2017-10-29T20:42:26.875Z,90.30
2017-10-29T20:44:55.330Z,91.60
2017-10-29T20:47:22.951Z,91.50
2017-10-29T20:49:50.612Z,91.90
2017-10-29T20:52:18.229Z,91.40
2017-10-29T20:54:45.842Z,91.70
2017-10-29T20:57:13.775Z,92.00
2017-10-29T20:59:41.519Z,92.40
2017-10-29T21:02:09.389Z,93.00
2017-10-29T21:04:37.786Z,93.00
2017-10-29T21:07:05.411Z,93.00
2017-10-29T21:09:33.064Z,93.10
2017-10-29T21:12:00.679Z,93.00
2017-10-29T21:14:28.391Z,92.90
2017-10-29T21:16:55.993Z,93.50
2017-10-29T21:19:24.378Z,92.00
2017-10-29T21:21:52.022Z,92.10
2017-10-29T21:24:19.723Z,92.20
2017-10-29T21:26:47.374Z,91.30
2017-10-29T21:29:14.997Z,91.30
2017-10-29T21:31:42.627Z,91.40
2017-10-29T21:34:10.276Z,91.60
2017-10-29T21:36:37.883Z,91.70
2017-10-29T21:39:05.533Z,92.10
2017-10-29T21:41:33.151Z,91.90
2017-10-29T21:44:00.762Z,91.90
2017-10-29T21:46:28.667Z,92.20
2017-10-29T21:48:57.048Z,91.90
2017-10-29T21:51:24.797Z,91.80
2017-10-29T21:53:52.428Z,90.80
2017-10-29T21:56:20.066Z,90.40
2017-10-29T21:58:48.483Z,90.50
2017-10-29T22:01:16.103Z,90.50
2017-10-29T22:03:43.758Z,89.80
2017-10-29T22:06:11.382Z,90.20
2017-10-29T22:08:39.779Z,90.20
2017-10-29T22:11:07.422Z,90.20
2017-10-29T22:13:35.030Z,90.40
2017-10-29T22:16:02.682Z,90.00
2017-10-29T22:18:31.061Z,90.40
2017-10-29T22:20:58.678Z,90.40
2017-10-29T22:23:27.095Z,88.70
2017-10-29T22:25:54.705Z,88.70
2017-10-29T22:28:23.147Z,89.40
2017-10-29T22:30:51.853Z,89.40
2017-10-29T22:33:19.468Z,87.70
2017-10-29T22:35:47.110Z,88.20
2017-10-29T22:38:14.735Z,86.90
2017-10-29T22:40:42.396Z,88.30
2017-10-29T22:43:10.010Z,87.80
2017-10-29T22:45:37.623Z,87.30
2017-10-29T22:48:05.272Z,87.50
2017-10-29T22:50:32.891Z,87.80
2017-10-29T22:53:01.661Z,87.10
2017-10-29T22:55:29.276Z,87.00
2017-10-29T22:57:56.893Z,87.70
2017-10-29T23:00:24.542Z,86.70
2017-10-29T23:02:52.171Z,87.60
2017-10-29T23:05:31.869Z,88.50
2017-10-29T23:08:04.081Z,88.60
2017-10-29T23:10:31.738Z,86.90
2017-10-29T23:12:59.416Z,86.50
2017-10-29T23:15:27.029Z,87.40
2017-10-29T23:17:54.672Z,87.20
2017-10-29T23:20:22.347Z,87.70
2017-10-29T23:22:49.991Z,87.30
2017-10-29T23:25:17.610Z,87.30
2017-10-29T23:27:45.269Z,87.70
2017-10-29T23:30:12.924Z,87.40
2017-10-29T23:32:40.530Z,86.90
2017-10-29T23:35:08.166Z,87.50
2017-10-29T23:37:35.782Z,87.50
2017-10-29T23:40:03.399Z,87.80
2017-10-29T23:42:31.049Z,88.10
2017-10-29T23:44:58.668Z,88.10
2017-10-29T23:47:26.339Z,87.60
2017-10-29T23:49:53.954Z,87.50
2017-10-29T23:52:21.577Z,87.80
2017-10-29T23:54:49.986Z,88.40
2017-10-29T23:57:17.612Z,88.50
2017-10-29T23:59:45.274Z,88.10
